createdAt,value
2022-11-06T00:01:15.291Z,97988.88
2022-11-06T00:03:44.845Z,97981.06
2022-11-06T00:06:35.336Z,97973.94
2022-11-06T00:09:16.618Z,97970.28
2022-11-06T00:11:45.542Z,97963.44
2022-11-06T00:14:14.345Z,97972.84
2022-11-06T00:16:44.228Z,97973.66
2022-11-06T00:19:12.814Z,97979.13
2022-11-06T00:21:40.992Z,97981.66
2022-11-06T00:24:11.375Z,97983.88
2022-11-06T00:26:39.796Z,97982.75
2022-11-06T00:29:07.905Z,97986.78
2022-11-06T00:31:37.669Z,97986.31
2022-11-06T00:34:10.042Z,97995.97
2022-11-06T00:36:38.604Z,97996.81
2022-11-06T00:39:07.198Z,97987.06
2022-11-06T00:41:35.250Z,97984.56
2022-11-06T00:44:04.682Z,97993.66
2022-11-06T00:46:32.882Z,97994.66
2022-11-06T00:49:00.964Z,97993.97
2022-11-06T00:51:41.500Z,97989.63
2022-11-06T00:54:12.462Z,97989.94
2022-11-06T00:56:40.931Z,97987.56
2022-11-06T00:59:13.093Z,97983.94
2022-11-06T01:01:44.514Z,97985.72
2022-11-06T01:04:19.948Z,97982.38
2022-11-06T01:06:53.204Z,97985.88
2022-11-06T01:09:24.742Z,97992.63
2022-11-06T01:12:14.238Z,97997.22
2022-11-06T01:14:43.803Z,97993.59
2022-11-06T01:17:13.474Z,97983.81
2022-11-06T01:19:41.649Z,97976.50
2022-11-06T01:22:09.758Z,97976.97
2022-11-06T01:24:37.882Z,97978.25
2022-11-06T01:27:25.395Z,97972.81
2022-11-06T01:29:54.017Z,97979.25
2022-11-06T01:32:22.125Z,97978.88
2022-11-06T01:34:51.892Z,97980.00
2022-11-06T01:37:19.976Z,97975.41
2022-11-06T01:39:50.706Z,97970.53
2022-11-06T01:42:21.633Z,97974.59
2022-11-06T01:45:29.718Z,97979.66
2022-11-06T01:47:57.997Z,97971.41
2022-11-06T01:50:27.048Z,97968.03
2022-11-06T01:52:55.971Z,97966.09
2022-11-06T01:55:31.721Z,97966.91
2022-11-06T01:58:05.354Z,97966.22
2022-11-06T02:00:34.027Z,97958.44
2022-11-06T02:03:02.775Z,97962.78
2022-11-06T02:05:31.393Z,97961.25
2022-11-06T02:08:01.171Z,97960.69
2022-11-06T02:10:30.557Z,97957.03
2022-11-06T02:13:36.058Z,97963.34
2022-11-06T02:16:30.661Z,97952.59
2022-11-06T02:19:29.611Z,97954.25
2022-11-06T02:22:29.613Z,97948.56
2022-11-06T02:25:09.934Z,97947.28
2022-11-06T02:27:40.892Z,97940.72
2022-11-06T02:30:13.299Z,97937.34
2022-11-06T02:32:58.191Z,97935.25
2022-11-06T02:35:35.841Z,97917.34
2022-11-06T02:38:28.426Z,97920.97
2022-11-06T02:41:02.844Z,97909.22
2022-11-06T02:43:43.432Z,97902.81
2022-11-06T02:46:34.529Z,97897.41
2022-11-06T02:49:14.995Z,97889.84
2022-11-06T02:51:56.255Z,97894.75
2022-11-06T02:54:29.282Z,97884.28
2022-11-06T02:57:05.401Z,97876.47
2022-11-06T03:00:02.747Z,97879.56
2022-11-06T03:02:41.103Z,97879.41
2022-11-06T03:05:43.427Z,97870.19
2022-11-06T03:08:18.731Z,97869.91
2022-11-06T03:11:12.982Z,97874.53
2022-11-06T03:14:35.296Z,97867.81
2022-11-06T03:17:27.382Z,97867.00
2022-11-06T03:20:18.960Z,97865.03
2022-11-06T03:23:18.865Z,97871.16
2022-11-06T03:25:51.490Z,97864.03
2022-11-06T03:28:39.275Z,97864.72
2022-11-06T03:31:15.252Z,97855.78
2022-11-06T03:33:54.854Z,97859.84
2022-11-06T03:36:32.537Z,97860.69
2022-11-06T03:39:10.259Z,97859.56
2022-11-06T03:41:58.942Z,97841.41
2022-11-06T03:44:31.012Z,97843.78
2022-11-06T03:47:22.826Z,97843.25
2022-11-06T03:50:12.758Z,97841.13
2022-11-06T03:52:54.301Z,97852.28
2022-11-06T03:55:35.197Z,97847.81
2022-11-06T03:58:13.883Z,97853.00
2022-11-06T04:00:44.800Z,97845.03
2022-11-06T04:03:28.508Z,97837.22
2022-11-06T04:06:10.606Z,97837.59
2022-11-06T04:08:59.481Z,97836.91
2022-11-06T04:11:49.279Z,97827.28
2022-11-06T04:14:20.335Z,97828.94
2022-11-06T04:16:54.296Z,97833.41
2022-11-06T04:19:23.485Z,97842.91
2022-11-06T04:22:34.986Z,97841.94
2022-11-06T04:25:58.877Z,97830.50
2022-11-06T04:28:43.906Z,97830.75
2022-11-06T04:31:37.059Z,97820.88
2022-11-06T04:34:52.393Z,97813.34
2022-11-06T04:37:33.436Z,97814.88
2022-11-06T04:40:35.362Z,97813.63
2022-11-06T04:43:15.201Z,97813.94
2022-11-06T04:45:49.645Z,97803.75
2022-11-06T04:48:19.286Z,97792.84
2022-11-06T04:50:54.689Z,97781.13
2022-11-06T04:53:24.473Z,97784.50
2022-11-06T04:55:55.921Z,97788.41
2022-11-06T04:58:24.000Z,97790.38
2022-11-06T05:00:52.371Z,97806.56
2022-11-06T05:03:20.648Z,97807.00
2022-11-06T05:05:48.703Z,97806.72
2022-11-06T05:08:21.135Z,97820.53
2022-11-06T05:10:49.308Z,97825.00
2022-11-06T05:13:17.514Z,97820.28
2022-11-06T05:15:45.593Z,97815.25
2022-11-06T05:18:13.814Z,97817.50
2022-11-06T05:20:41.997Z,97812.03
2022-11-06T05:23:10.225Z,97813.72
2022-11-06T05:25:40.567Z,97823.63
2022-11-06T05:28:09.690Z,97825.16
2022-11-06T05:30:38.076Z,97834.22
2022-11-06T05:33:06.249Z,97820.84
2022-11-06T05:35:34.332Z,97813.72
2022-11-06T05:38:03.856Z,97812.59
2022-11-06T05:40:31.936Z,97811.75
2022-11-06T05:43:00.044Z,97805.63
2022-11-06T05:45:28.136Z,97794.03
2022-11-06T05:47:57.033Z,97798.75
2022-11-06T05:50:25.588Z,97806.59
2022-11-06T05:52:53.697Z,97811.75
2022-11-06T05:55:21.752Z,97829.47
2022-11-06T05:57:49.953Z,97826.28
2022-11-06T06:00:18.396Z,97824.44
2022-11-06T06:02:46.832Z,97823.75
2022-11-06T06:05:14.946Z,97826.28
2022-11-06T06:07:43.030Z,97817.50
2022-11-06T06:10:11.714Z,97826.53
2022-11-06T06:12:40.008Z,97828.09
2022-11-06T06:15:08.689Z,97817.63
2022-11-06T06:17:36.797Z,97809.09
2022-11-06T06:20:06.055Z,97807.28
2022-11-06T06:22:34.257Z,97796.81
2022-11-06T06:25:02.415Z,97796.28
2022-11-06T06:27:31.383Z,97787.06
2022-11-06T06:29:59.466Z,97787.06
2022-11-06T06:32:27.567Z,97778.00
2022-11-06T06:34:55.637Z,97782.34
2022-11-06T06:37:23.737Z,97779.81
2022-11-06T06:39:51.796Z,97780.66
2022-11-06T06:42:20.001Z,97783.31
2022-11-06T06:44:48.079Z,97775.63
2022-11-06T06:47:19.165Z,97766.72
2022-11-06T06:49:48.564Z,97770.19
2022-11-06T06:52:16.766Z,97773.66
2022-11-06T06:54:44.849Z,97768.09
2022-11-06T06:57:12.951Z,97768.09
2022-11-06T06:59:41.017Z,97761.53
2022-11-06T07:02:09.893Z,97755.13
2022-11-06T07:04:38.017Z,97744.94
2022-11-06T07:07:06.125Z,97746.47
2022-11-06T07:09:34.184Z,97734.78
2022-11-06T07:12:02.297Z,97740.06
2022-11-06T07:14:30.347Z,97736.56
2022-11-06T07:16:58.549Z,97732.00
2022-11-06T07:19:26.632Z,97719.56
2022-11-06T07:21:54.746Z,97723.59
2022-11-06T07:24:22.797Z,97722.91
2022-11-06T07:26:50.906Z,97711.31
2022-11-06T07:29:18.965Z,97702.25
2022-11-06T07:31:47.527Z,97706.56
2022-11-06T07:34:15.642Z,97696.66
2022-11-06T07:36:43.712Z,97695.94
2022-11-06T07:39:12.011Z,97688.28
2022-11-06T07:41:40.094Z,97692.88
2022-11-06T07:44:08.201Z,97691.63
2022-11-06T07:46:36.260Z,97689.66
2022-11-06T07:49:04.365Z,97676.66
2022-11-06T07:51:32.689Z,97669.38
2022-11-06T07:54:00.890Z,97665.47
2022-11-06T07:56:28.949Z,97662.66
2022-11-06T07:58:57.749Z,97658.19
2022-11-06T08:01:26.277Z,97663.22
2022-11-06T08:03:54.423Z,97665.13
2022-11-06T08:06:22.501Z,97654.94
2022-11-06T08:08:52.709Z,97653.66
2022-11-06T08:11:24.405Z,97659.09
2022-11-06T08:13:52.508Z,97651.38
2022-11-06T08:16:20.684Z,97658.38
2022-11-06T08:18:48.888Z,97656.44
2022-11-06T08:21:16.971Z,97667.75
2022-11-06T08:23:45.207Z,97672.44
2022-11-06T08:26:13.255Z,97676.47
2022-11-06T08:28:41.818Z,97676.47
2022-11-06T08:31:10.391Z,97672.72
2022-11-06T08:33:39.662Z,97668.47
2022-11-06T08:36:09.425Z,97666.34
2022-11-06T08:38:37.808Z,97664.25
2022-11-06T08:41:13.390Z,97661.84
2022-11-06T08:43:41.953Z,97651.59
2022-11-06T08:46:11.236Z,97648.50
2022-11-06T08:48:39.345Z,97638.63
2022-11-06T08:51:07.759Z,97638.56
2022-11-06T08:53:36.029Z,97644.75
2022-11-06T08:56:05.726Z,97644.19
2022-11-06T08:58:34.317Z,97646.22
2022-11-06T09:01:02.436Z,97648.94
2022-11-06T09:03:30.697Z,97641.34
2022-11-06T09:05:58.780Z,97642.72
2022-11-06T09:08:27.243Z,97663.34
2022-11-06T09:10:58.597Z,97688.16
2022-11-06T09:13:27.359Z,97699.69
2022-11-06T09:15:55.436Z,97712.06
2022-11-06T09:18:23.539Z,97704.97
2022-11-06T09:20:56.532Z,97691.06
2022-11-06T09:23:25.314Z,97690.28
2022-11-06T09:25:53.392Z,97677.47
2022-11-06T09:28:21.501Z,97671.50
2022-11-06T09:30:49.585Z,97674.53
2022-11-06T09:33:17.896Z,97670.56
2022-11-06T09:35:46.201Z,97670.31
2022-11-06T09:38:15.783Z,97656.75
2022-11-06T09:41:37.087Z,97642.81
2022-11-06T09:44:11.437Z,97635.56
2022-11-06T09:46:47.412Z,97642.06
2022-11-06T09:49:24.260Z,97630.97
2022-11-06T09:52:11.802Z,97623.00
2022-11-06T09:54:49.665Z,97625.22
2022-11-06T09:58:32.063Z,97613.94
2022-11-06T10:01:21.166Z,97610.63
2022-11-06T10:04:51.528Z,97613.13
2022-11-06T10:07:43.742Z,97614.00
2022-11-06T10:10:28.136Z,97614.31
2022-11-06T10:13:38.797Z,97610.81
2022-11-06T10:17:02.003Z,97594.19
2022-11-06T10:20:05.712Z,97579.22
2022-11-06T10:22:39.915Z,97568.03
2022-11-06T10:25:28.008Z,97570.56
2022-11-06T10:28:57.457Z,97562.22
2022-11-06T10:31:51.297Z,97553.22
2022-11-06T10:34:36.297Z,97545.91
2022-11-06T10:37:32.729Z,97538.06
2022-11-06T10:40:04.142Z,97533.34
2022-11-06T10:42:40.506Z,97527.53
2022-11-06T10:45:16.158Z,97515.84
2022-11-06T10:47:52.656Z,97506.13
2022-11-06T10:50:21.435Z,97496.78
2022-11-06T10:53:43.302Z,97501.78
2022-11-06T10:56:41.389Z,97486.13
2022-11-06T10:59:09.477Z,97474.09
2022-11-06T11:01:38.849Z,97462.75
2022-11-06T11:04:07.046Z,97450.38
2022-11-06T11:06:35.153Z,97445.16
2022-11-06T11:09:23.372Z,97436.63
2022-11-06T11:11:51.597Z,97442.28
2022-11-06T11:14:31.909Z,97444.22
2022-11-06T11:17:02.140Z,97428.34
2022-11-06T11:19:35.860Z,97420.44
2022-11-06T11:22:19.085Z,97423.44
2022-11-06T11:25:24.465Z,97414.06
2022-11-06T11:27:52.698Z,97401.81
2022-11-06T11:30:26.470Z,97410.47
2022-11-06T11:32:54.715Z,97415.94
2022-11-06T11:35:30.865Z,97411.22
2022-11-06T11:38:14.717Z,97403.44
2022-11-06T11:40:43.353Z,97401.19
2022-11-06T11:43:27.871Z,97393.66
2022-11-06T11:46:10.566Z,97391.47
2022-11-06T11:48:52.567Z,97385.78
2022-11-06T11:51:40.839Z,97382.38
2022-11-06T11:54:11.775Z,97374.25
2022-11-06T11:57:08.440Z,97359.34
2022-11-06T11:59:49.218Z,97358.44
2022-11-06T12:02:37.061Z,97359.72
2022-11-06T12:05:15.051Z,97354.66
2022-11-06T12:07:49.014Z,97353.28
2022-11-06T12:10:40.709Z,97342.03
2022-11-06T12:13:21.177Z,97332.59
2022-11-06T12:16:05.316Z,97328.94
2022-11-06T12:18:48.062Z,97327.22
2022-11-06T12:21:29.368Z,97319.63
2022-11-06T12:24:13.029Z,97321.75
2022-11-06T12:27:22.152Z,97330.25
2022-11-06T12:30:10.487Z,97330.41
2022-11-06T12:33:00.323Z,97324.44
2022-11-06T12:36:14.217Z,97320.53
2022-11-06T12:38:59.480Z,97317.56
2022-11-06T12:41:36.002Z,97313.13
2022-11-06T12:44:04.539Z,97315.41
2022-11-06T12:47:10.425Z,97299.66
2022-11-06T12:50:22.028Z,97291.72
2022-11-06T12:53:06.055Z,97291.13
2022-11-06T12:56:13.273Z,97288.00
2022-11-06T12:59:21.222Z,97291.50
2022-11-06T13:01:59.112Z,97280.25
2022-11-06T13:05:38.124Z,97271.75
2022-11-06T13:09:01.046Z,97268.69
2022-11-06T13:11:57.449Z,97274.69
2022-11-06T13:14:34.771Z,97271.44
2022-11-06T13:17:47.612Z,97269.41
2022-11-06T13:21:06.621Z,97259.16
2022-11-06T13:23:50.519Z,97258.38
2022-11-06T13:26:43.089Z,97263.34
2022-11-06T13:29:16.063Z,97261.31
2022-11-06T13:32:10.576Z,97250.19
2022-11-06T13:34:41.991Z,97244.66
2022-11-06T13:37:45.352Z,97244.03
2022-11-06T13:40:36.256Z,97251.47
2022-11-06T13:43:27.141Z,97258.69
2022-11-06T13:46:39.841Z,97248.16
2022-11-06T13:49:39.029Z,97231.72
2022-11-06T13:52:19.087Z,97231.72
2022-11-06T13:55:07.810Z,97238.31
2022-11-06T13:58:22.842Z,97236.44
2022-11-06T14:01:02.871Z,97234.44
2022-11-06T14:04:04.248Z,97236.88
2022-11-06T14:06:35.299Z,97236.25
2022-11-06T14:09:13.944Z,97243.44
2022-11-06T14:11:45.296Z,97243.00
2022-11-06T14:14:28.613Z,97247.72
2022-11-06T14:17:24.297Z,97245.03
2022-11-06T14:19:52.237Z,97245.25
2022-11-06T14:22:36.637Z,97243.59
2022-11-06T14:25:29.686Z,97240.91
2022-11-06T14:27:57.665Z,97249.38
2022-11-06T14:30:57.643Z,97232.69
2022-11-06T14:33:58.989Z,97238.41
2022-11-06T14:36:36.912Z,97239.44
2022-11-06T14:39:11.117Z,97229.75
2022-11-06T14:41:40.136Z,97223.94
2022-11-06T14:44:31.044Z,97207.47
2022-11-06T14:47:03.181Z,97204.34
2022-11-06T14:49:49.052Z,97200.41
2022-11-06T14:52:18.786Z,97200.97
2022-11-06T14:55:05.541Z,97202.00
2022-11-06T14:57:45.338Z,97203.47
2022-11-06T15:00:34.035Z,97208.19
2022-11-06T15:03:05.838Z,97209.41
2022-11-06T15:05:42.116Z,97214.31
2022-11-06T15:08:11.138Z,97209.31
2022-11-06T15:10:44.991Z,97206.84
2022-11-06T15:13:18.712Z,97197.81
2022-11-06T15:16:03.596Z,97187.88
2022-11-06T15:18:35.611Z,97192.34
2022-11-06T15:21:09.572Z,97181.13
2022-11-06T15:24:08.259Z,97201.25
2022-11-06T15:26:54.820Z,97188.88
2022-11-06T15:29:26.985Z,97199.94
2022-11-06T15:32:12.730Z,97191.69
2022-11-06T15:35:13.815Z,97194.72
2022-11-06T15:37:47.993Z,97199.25
2022-11-06T15:40:33.698Z,97205.34
2022-11-06T15:43:29.900Z,97208.31
2022-11-06T15:46:21.745Z,97210.53
2022-11-06T15:49:19.587Z,97209.06
2022-11-06T15:52:03.003Z,97199.00
2022-11-06T15:54:37.205Z,97207.84
2022-11-06T15:57:24.371Z,97199.19
2022-11-06T16:00:19.452Z,97200.19
2022-11-06T16:03:03.877Z,97198.16
2022-11-06T16:05:37.005Z,97189.50
2022-11-06T16:08:06.890Z,97193.03
2022-11-06T16:10:37.340Z,97190.72
2022-11-06T16:13:05.929Z,97185.75
2022-11-06T16:15:43.233Z,97173.41
2022-11-06T16:18:24.509Z,97166.63
2022-11-06T16:21:19.003Z,97165.41
2022-11-06T16:24:02.467Z,97183.53
2022-11-06T16:26:35.576Z,97183.53
2022-11-06T16:29:28.566Z,97183.47
2022-11-06T16:32:08.233Z,97185.56
2022-11-06T16:34:46.168Z,97188.41
2022-11-06T16:37:17.327Z,97183.91
2022-11-06T16:39:52.636Z,97184.91
2022-11-06T16:42:26.968Z,97180.22
2022-11-06T16:45:21.084Z,97183.06
2022-11-06T16:48:10.776Z,97177.72
2022-11-06T16:50:57.209Z,97159.22
2022-11-06T16:53:29.943Z,97171.94
2022-11-06T16:56:07.504Z,97176.44
2022-11-06T16:59:03.071Z,97183.19
2022-11-06T17:01:40.976Z,97173.31
2022-11-06T17:04:29.018Z,97171.69
2022-11-06T17:06:58.671Z,97174.00
2022-11-06T17:09:31.526Z,97169.19
2022-11-06T17:12:02.004Z,97164.41
2022-11-06T17:14:32.150Z,97190.31
2022-11-06T17:17:02.155Z,97193.00
2022-11-06T17:19:30.571Z,97192.78
2022-11-06T17:21:59.035Z,97196.47
2022-11-06T17:24:42.452Z,97200.59
2022-11-06T17:27:10.565Z,97205.13
2022-11-06T17:29:38.920Z,97195.25
2022-11-06T17:32:07.058Z,97188.06
2022-11-06T17:34:35.180Z,97188.53
2022-11-06T17:37:03.265Z,97197.19
2022-11-06T17:39:31.786Z,97210.53
2022-11-06T17:41:59.898Z,97215.06
2022-11-06T17:44:28.076Z,97216.63
2022-11-06T17:46:56.181Z,97209.84
2022-11-06T17:49:24.265Z,97199.97
2022-11-06T17:52:01.347Z,97198.13
2022-11-06T17:54:34.226Z,97204.09
2022-11-06T17:57:06.003Z,97201.63
2022-11-06T17:59:35.405Z,97223.00
2022-11-06T18:02:04.175Z,97226.88
2022-11-06T18:04:34.327Z,97226.41
2022-11-06T18:07:02.655Z,97219.59
2022-11-06T18:09:30.765Z,97226.16
2022-11-06T18:11:58.843Z,97246.22
2022-11-06T18:14:27.860Z,97242.91
2022-11-06T18:16:55.970Z,97243.09
2022-11-06T18:19:25.837Z,97239.41
2022-11-06T18:21:55.267Z,97243.56
2022-11-06T18:24:23.911Z,97245.19
2022-11-06T18:26:52.135Z,97241.88
2022-11-06T18:29:20.673Z,97241.88
2022-11-06T18:31:48.880Z,97230.00
2022-11-06T18:34:20.629Z,97232.66
2022-11-06T18:36:52.030Z,97223.09
2022-11-06T18:39:20.324Z,97228.81
2022-11-06T18:41:49.008Z,97224.47
2022-11-06T18:44:18.781Z,97241.88
2022-11-06T18:46:47.815Z,97238.66
2022-11-06T18:49:16.619Z,97230.28
2022-11-06T18:51:44.964Z,97227.44
2022-11-06T18:54:13.498Z,97236.44
2022-11-06T18:56:42.218Z,97230.00
2022-11-06T18:59:16.745Z,97237.66
2022-11-06T19:01:44.960Z,97233.31
2022-11-06T19:04:13.561Z,97237.28
2022-11-06T19:06:42.700Z,97246.94
2022-11-06T19:09:11.115Z,97246.94
2022-11-06T19:11:39.677Z,97257.81
2022-11-06T19:14:07.759Z,97260.69
2022-11-06T19:16:36.442Z,97279.56
2022-11-06T19:19:06.799Z,97281.22
2022-11-06T19:21:35.364Z,97280.41
2022-11-06T19:24:05.678Z,97285.84
2022-11-06T19:26:36.382Z,97277.25
2022-11-06T19:29:08.227Z,97285.28
2022-11-06T19:31:37.842Z,97294.31
2022-11-06T19:34:08.562Z,97298.63
2022-11-06T19:36:36.584Z,97295.78
2022-11-06T19:39:06.970Z,97292.94
2022-11-06T19:41:35.185Z,97295.94
2022-11-06T19:44:03.349Z,97301.22
2022-11-06T19:46:36.112Z,97305.06
2022-11-06T19:49:06.862Z,97305.53
2022-11-06T19:51:37.746Z,97303.88
2022-11-06T19:54:06.240Z,97310.59
2022-11-06T19:56:34.323Z,97306.25
2022-11-06T19:59:03.024Z,97303.75
2022-11-06T20:01:33.991Z,97301.47
2022-11-06T20:04:02.200Z,97302.38
2022-11-06T20:06:30.276Z,97294.38
2022-11-06T20:08:58.451Z,97303.38
2022-11-06T20:11:26.532Z,97303.22
2022-11-06T20:13:54.762Z,97303.38
2022-11-06T20:16:23.089Z,97301.63
2022-11-06T20:18:57.528Z,97313.31
2022-11-06T20:21:30.530Z,97304.28
2022-11-06T20:23:58.616Z,97321.81
2022-11-06T20:26:26.691Z,97321.97
2022-11-06T20:28:54.776Z,97306.97
2022-11-06T20:31:23.323Z,97314.88
2022-11-06T20:33:52.621Z,97313.19
2022-11-06T20:36:28.244Z,97320.69
2022-11-06T20:39:00.878Z,97320.56
2022-11-06T20:41:30.282Z,97316.41
2022-11-06T20:43:58.743Z,97320.63
2022-11-06T20:46:27.167Z,97319.44
2022-11-06T20:48:55.399Z,97316.41
2022-11-06T20:51:27.414Z,97313.75
2022-11-06T20:53:55.977Z,97310.91
2022-11-06T20:56:25.577Z,97311.56
2022-11-06T20:58:55.520Z,97318.00
2022-11-06T21:01:27.308Z,97314.63
2022-11-06T21:03:57.086Z,97310.41
2022-11-06T21:06:27.065Z,97310.47
2022-11-06T21:08:55.899Z,97296.41
2022-11-06T21:11:27.322Z,97309.75
2022-11-06T21:13:56.127Z,97324.78
2022-11-06T21:16:32.356Z,97313.91
2022-11-06T21:19:01.903Z,97332.50
2022-11-06T21:21:34.324Z,97344.41
2022-11-06T21:24:04.911Z,97340.16
2022-11-06T21:26:37.405Z,97341.38
2022-11-06T21:29:11.008Z,97339.06
2022-11-06T21:31:47.306Z,97329.31
2022-11-06T21:34:19.201Z,97338.97
2022-11-06T21:36:47.997Z,97328.56
2022-11-06T21:39:20.281Z,97327.00
2022-11-06T21:41:48.580Z,97326.66
2022-11-06T21:44:18.583Z,97316.69
2022-11-06T21:46:46.925Z,97321.47
2022-11-06T21:49:15.132Z,97321.66
2022-11-06T21:51:43.337Z,97323.78
2022-11-06T21:54:31.099Z,97326.09
2022-11-06T21:56:59.154Z,97330.91
2022-11-06T21:59:30.752Z,97330.72
2022-11-06T22:01:59.094Z,97341.47
2022-11-06T22:04:27.394Z,97345.72
2022-11-06T22:06:55.448Z,97358.78
2022-11-06T22:09:25.638Z,97365.06
2022-11-06T22:11:54.398Z,97376.25
2022-11-06T22:14:22.609Z,97389.50
2022-11-06T22:16:50.677Z,97398.38
2022-11-06T22:19:18.764Z,97404.38
2022-11-06T22:21:46.940Z,97407.50
2022-11-06T22:24:16.105Z,97416.00
2022-11-06T22:26:44.195Z,97429.06
2022-11-06T22:29:15.667Z,97425.88
2022-11-06T22:31:43.829Z,97418.16
2022-11-06T22:34:13.592Z,97421.03
2022-11-06T22:36:41.820Z,97425.44
2022-11-06T22:39:12.421Z,97424.16
2022-11-06T22:41:41.202Z,97429.25
2022-11-06T22:44:09.783Z,97432.38
2022-11-06T22:46:37.963Z,97432.94
2022-11-06T22:49:06.767Z,97428.44
2022-11-06T22:51:35.327Z,97429.25
2022-11-06T22:54:04.872Z,97439.59
2022-11-06T22:56:33.679Z,97440.59
2022-11-06T22:59:05.722Z,97441.06
2022-11-06T23:01:40.189Z,97443.47
2022-11-06T23:04:15.304Z,97444.28
2022-11-06T23:06:45.399Z,97442.09
2022-11-06T23:09:14.851Z,97449.94
2022-11-06T23:11:46.509Z,97455.81
2022-11-06T23:14:14.613Z,97456.63
2022-11-06T23:16:57.796Z,97451.28
2022-11-06T23:19:27.098Z,97457.84
2022-11-06T23:22:13.658Z,97459.81
2022-11-06T23:24:42.202Z,97455.03
2022-11-06T23:27:11.740Z,97454.28
2022-11-06T23:29:40.281Z,97454.75
2022-11-06T23:32:08.488Z,97457.06
2022-11-06T23:34:36.587Z,97447.06
2022-11-06T23:37:04.769Z,97453.22
2022-11-06T23:39:32.873Z,97456.38
2022-11-06T23:42:01.064Z,97456.38
2022-11-06T23:44:47.520Z,97442.34
2022-11-06T23:47:15.600Z,97450.63
2022-11-06T23:49:43.660Z,97449.34
2022-11-06T23:52:11.766Z,97451.66
2022-11-06T23:54:39.731Z,97445.13
2022-11-06T23:57:09.367Z,97443.00
2022-11-06T23:59:37.909Z,97457.19
